logo
Search for airport 
image banner adimage banner adimage banner ad
image banner ad

SCGY - Los Guayes

Located in Cunco, Chile

ICAO - SCGY, IATA -

Data provided by Airmate  

General information

Coordinates: S39°3'8" W71°59'37"
Elevation is 1312 feet MSL.
Magnetic variation is 6° East
View others Airports in Araucanía

Operational data

Special qualification required
Current time UTC:
Current local time:
Weather at : SCQP - La Araucania ( 59 km )
METAR: SCQP 152100Z 11008KT 080V140 5000 -SHRA BR BKN004 OVC100 04/04 Q1019
TAF: TAF SCQP 151648Z 1518/1618 VRB02KT 9999 SCT010 BKN020 OVC100 TX07/1519Z TN06/1612Z BECMG 1520/1522 09006KT BECMG 1522/1524 27005KT BECMG 1600/1602 03006KT BKN020 OVC030 TEMPO 1602/1608 8000 RA
View NOTAMs / SUP AIP / TFR affecting this airport [VIEW]
Communications frequencies: [VIEW]

Runways:

RWY identifierQFULength (ft)Width (ft)SurfaceLDA (ft)
17170°189365DIRT
35350°189365DIRT

Airport contact information

Address: Cunco Chile

Satellite view of SCGY